Time;durP1;ratioP1;P1;durP2;ratioP2;P2;SDS_P1;SDS_P2;PMS_P1;PMS_P2;Temp;Humidity;BMP_temperature;BMP_pressure;BME280_temperature;BME280_humidity;BME280_pressure;Samples;Min_cycle;Max_cycle;Signal;HPM_P1;HPM_P2
2022/05/07 00:00:57;;;;;;;7.50;4.57;;;14.40;69.70;;;;;;5066504;28;20470;-74
2022/05/07 00:03:25;;;;;;;9.13;4.80;;;14.30;69.70;;;;;;5064326;28;20490;-75
2022/05/07 00:05:53;;;;;;;7.20;4.50;;;14.30;69.80;;;;;;5081771;28;20962;-75
2022/05/07 00:08:21;;;;;;;6.97;4.70;;;14.20;69.80;;;;;;5067562;28;20469;-75
2022/05/07 00:10:50;;;;;;;7.17;4.70;;;14.20;69.90;;;;;;5065024;28;20830;-75
2022/05/07 00:13:20;;;;;;;7.33;4.90;;;14.20;70.00;;;;;;5065248;28;20521;-75
2022/05/07 00:18:30;;;;;;;9.33;6.20;;;14.10;70.00;;;;;;5066021;28;20469;-75
2022/05/07 00:20:58;;;;;;;9.63;5.77;;;14.10;70.00;;;;;;5066050;28;20477;-75
2022/05/07 00:23:26;;;;;;;8.70;6.17;;;14.10;70.00;;;;;;5065741;28;20902;-75
2022/05/07 00:25:54;;;;;;;13.03;7.00;;;14.00;70.00;;;;;;5066095;28;20461;-75
2022/05/07 00:28:24;;;;;;;15.10;8.13;;;14.00;70.10;;;;;;5065963;28;20513;-75
2022/05/07 00:30:52;;;;;;;14.43;7.57;;;13.90;70.20;;;;;;5064577;28;20486;-74
2022/05/07 00:33:20;;;;;;;9.80;6.23;;;13.90;70.30;;;;;;5059506;28;20453;-75
2022/05/07 00:35:48;;;;;;;7.90;5.57;;;13.90;70.40;;;;;;5058588;28;20486;-74
2022/05/07 00:38:16;;;;;;;5.97;4.10;;;13.90;70.40;;;;;;5065314;28;20507;-75
2022/05/07 00:40:44;;;;;;;6.20;3.90;;;13.90;70.30;;;;;;5065170;28;20590;-75
2022/05/07 00:43:15;;;;;;;10.00;4.07;;;13.80;70.20;;;;;;5058913;28;20478;-75
2022/05/07 00:45:46;;;;;;;6.97;4.63;;;13.80;70.10;;;;;;5064813;28;20474;-75
2022/05/07 00:48:15;;;;;;;8.90;4.03;;;13.70;70.10;;;;;;5076979;28;20455;-75
2022/05/07 00:53:45;;;;;;;5.73;4.00;;;13.60;70.00;;;;;;5001397;28;20484;-75
2022/05/07 00:56:13;;;;;;;6.20;4.00;;;13.50;70.00;;;;;;4984413;28;20468;-74
2022/05/07 00:58:41;;;;;;;10.00;4.73;;;13.40;70.20;;;;;;5033174;28;20497;-75
2022/05/07 01:01:10;;;;;;;6.10;3.93;;;13.40;70.30;;;;;;5079246;28;20473;-75
2022/05/07 01:03:39;;;;;;;6.80;4.23;;;13.40;70.30;;;;;;5065214;28;20477;-75
2022/05/07 01:06:09;;;;;;;6.90;4.40;;;13.40;70.30;;;;;;5054474;28;20453;-75
2022/05/07 01:08:38;;;;;;;6.60;4.30;;;13.40;70.50;;;;;;5080978;28;20458;-75
2022/05/07 01:11:06;;;;;;;7.27;4.27;;;13.40;70.50;;;;;;5066921;28;20514;-75
2022/05/07 01:13:35;;;;;;;6.23;3.73;;;13.40;70.30;;;;;;5063844;28;21162;-75
2022/05/07 01:16:03;;;;;;;6.87;4.80;;;13.30;70.20;;;;;;5065816;28;20860;-75
2022/05/07 01:18:37;;;;;;;8.00;5.80;;;13.20;70.40;;;;;;5081359;28;20533;-74
2022/05/07 01:21:09;;;;;;;8.17;5.23;;;13.20;70.50;;;;;;5064673;28;20486;-74
2022/05/07 01:23:38;;;;;;;8.17;5.73;;;13.20;70.50;;;;;;5069351;28;20477;-74
2022/05/07 01:26:06;;;;;;;5.50;4.30;;;13.20;70.70;;;;;;5069916;28;20552;-75
2022/05/07 01:28:37;;;;;;;9.33;4.40;;;13.20;70.60;;;;;;5058966;28;20454;-75
2022/05/07 01:31:07;;;;;;;6.40;3.90;;;13.20;70.50;;;;;;5065010;28;20470;-75
2022/05/07 01:33:37;;;;;;;6.60;4.00;;;13.10;70.40;;;;;;5079314;28;20465;-74
2022/05/07 01:36:11;;;;;;;5.83;3.93;;;13.10;70.40;;;;;;5073983;28;20955;-75
2022/05/07 01:38:41;;;;;;;6.47;4.50;;;13.10;70.40;;;;;;5068803;28;20458;-75
2022/05/07 01:41:10;;;;;;;11.60;7.30;;;13.00;70.50;;;;;;5068854;28;20901;-75
2022/05/07 01:43:40;;;;;;;14.70;7.80;;;13.00;70.40;;;;;;5069648;28;20473;-75
2022/05/07 01:48:09;;;;;;;11.77;6.80;;;13.00;70.50;;;;;;5083208;28;20480;-75
2022/05/07 01:48:58;;;;;;;11.20;5.50;;;13.00;70.60;;;;;;5065688;28;20963;-74
2022/05/07 01:51:29;;;;;;;8.13;5.10;;;13.00;70.60;;;;;;5066784;28;20594;-75
2022/05/07 01:53:58;;;;;;;10.00;5.67;;;13.10;70.50;;;;;;5074172;28;20457;-75
2022/05/07 01:56:26;;;;;;;8.40;5.40;;;13.00;70.50;;;;;;5060569;28;22803;-75
2022/05/07 01:58:55;;;;;;;7.47;4.70;;;13.00;70.60;;;;;;5067059;28;20553;-75
2022/05/07 02:01:23;;;;;;;8.47;5.10;;;13.00;70.50;;;;;;5065380;28;20484;-75
2022/05/07 02:03:51;;;;;;;8.87;6.00;;;13.00;70.40;;;;;;5060152;28;21005;-75
2022/05/07 02:06:24;;;;;;;7.23;4.90;;;12.90;70.40;;;;;;5067486;28;20469;-75
2022/05/07 02:08:54;;;;;;;8.47;5.10;;;12.90;70.40;;;;;;5069463;28;20462;-75
2022/05/07 02:11:28;;;;;;;8.63;5.37;;;12.90;70.40;;;;;;5066468;28;20576;-75
2022/05/07 02:13:56;;;;;;;7.80;4.27;;;12.80;70.50;;;;;;5064523;28;20507;-75
2022/05/07 02:16:25;;;;;;;6.00;4.07;;;12.80;70.50;;;;;;5057778;28;21009;-75
2022/05/07 02:18:53;;;;;;;6.30;4.20;;;12.80;70.40;;;;;;5069552;28;20564;-75
2022/05/07 02:21:21;;;;;;;9.17;4.63;;;12.80;70.30;;;;;;5067303;28;20501;-75
2022/05/07 02:23:49;;;;;;;11.33;5.80;;;12.70;70.40;;;;;;5061996;28;20982;-75
2022/05/07 02:26:18;;;;;;;8.20;4.60;;;12.70;70.40;;;;;;5066379;28;20454;-75
2022/05/07 02:28:47;;;;;;;7.20;4.53;;;12.70;70.50;;;;;;5062940;28;20464;-75
2022/05/07 02:31:15;;;;;;;8.83;4.90;;;12.70;70.50;;;;;;5063811;28;20485;-75
2022/05/07 02:33:45;;;;;;;5.70;3.33;;;12.60;70.40;;;;;;5067176;28;20819;-75
2022/05/07 02:36:16;;;;;;;6.07;3.97;;;12.60;70.40;;;;;;5066406;28;20450;-75
2022/05/07 02:38:44;;;;;;;5.90;3.60;;;12.60;70.40;;;;;;5064006;28;20446;-75
2022/05/07 02:44:02;;;;;;;5.60;4.00;;;12.50;70.60;;;;;;5066768;28;20823;-75
2022/05/07 02:46:30;;;;;;;6.50;3.73;;;12.50;70.60;;;;;;5066596;28;20470;-75
2022/05/07 02:48:58;;;;;;;6.20;3.70;;;12.50;70.40;;;;;;5072052;28;20461;-75
2022/05/07 02:51:26;;;;;;;6.50;3.90;;;12.40;70.40;;;;;;5082260;28;20544;-75
2022/05/07 02:53:55;;;;;;;5.90;3.73;;;12.40;70.50;;;;;;5058053;28;20477;-75
2022/05/07 02:56:23;;;;;;;6.40;3.83;;;12.40;70.60;;;;;;5066686;28;20478;-75
2022/05/07 02:58:51;;;;;;;7.30;3.67;;;12.40;70.50;;;;;;5069421;28;20517;-74
2022/05/07 03:01:21;;;;;;;5.63;3.30;;;12.40;70.50;;;;;;5069435;28;21068;-75
2022/05/07 03:03:52;;;;;;;6.23;3.80;;;12.30;70.60;;;;;;5067566;28;20458;-75
2022/05/07 03:06:20;;;;;;;5.03;3.30;;;12.30;70.60;;;;;;5066686;28;20478;-75
2022/05/07 03:08:49;;;;;;;6.30;3.53;;;12.30;70.40;;;;;;5067667;28;20458;-75
2022/05/07 03:11:17;;;;;;;7.00;4.40;;;12.30;70.30;;;;;;5065348;28;20488;-75
2022/05/07 03:13:45;;;;;;;6.17;3.90;;;12.20;70.30;;;;;;5083625;28;20446;-75
2022/05/07 03:16:13;;;;;;;5.63;3.63;;;12.20;70.30;;;;;;5066012;28;20550;-74
2022/05/07 03:18:44;;;;;;;6.27;4.10;;;12.10;70.40;;;;;;5068216;28;20478;-75
2022/05/07 03:21:14;;;;;;;6.70;3.63;;;12.10;70.40;;;;;;5058150;28;20490;-75
2022/05/07 03:23:44;;;;;;;10.77;4.20;;;12.20;70.50;;;;;;5066206;28;20454;-75
2022/05/07 03:26:12;;;;;;;4.87;3.07;;;12.20;70.50;;;;;;5064889;28;20498;-75
2022/05/07 03:28:41;;;;;;;5.80;3.80;;;12.20;70.50;;;;;;5065905;28;20875;-75
2022/05/07 03:31:11;;;;;;;6.07;3.77;;;12.20;70.50;;;;;;5063791;28;20565;-74
2022/05/07 03:33:40;;;;;;;6.00;3.50;;;12.10;70.40;;;;;;5066456;28;20962;-75
2022/05/07 03:36:11;;;;;;;6.60;4.00;;;12.10;70.30;;;;;;5065227;28;20462;-75
2022/05/07 03:38:39;;;;;;;7.13;4.57;;;12.00;70.30;;;;;;5057300;28;20950;-75
2022/05/07 03:41:15;;;;;;;5.90;3.87;;;12.00;70.30;;;;;;5055570;28;20485;-75
2022/05/07 03:43:43;;;;;;;7.10;3.90;;;12.00;70.30;;;;;;5081727;28;20464;-75
2022/05/07 03:46:11;;;;;;;10.10;4.17;;;12.00;70.30;;;;;;5065908;28;20867;-75
2022/05/07 03:48:50;;;;;;;6.07;3.63;;;12.00;70.30;;;;;;5055115;28;20463;-74
2022/05/07 03:51:19;;;;;;;6.33;3.60;;;12.00;70.30;;;;;;5063601;28;20509;-74
2022/05/07 03:53:47;;;;;;;6.33;4.13;;;11.90;70.30;;;;;;5064998;28;21052;-74
2022/05/07 03:56:21;;;;;;;5.23;3.13;;;11.90;70.30;;;;;;5080934;28;20480;-75
2022/05/07 03:58:49;;;;;;;10.77;3.60;;;11.90;70.30;;;;;;5058501;28;20465;-74
2022/05/07 04:01:29;;;;;;;6.23;3.60;;;11.90;70.30;;;;;;5081069;28;21085;-75
2022/05/07 04:03:57;;;;;;;6.73;3.70;;;11.80;70.40;;;;;;5064400;28;20458;-75
2022/05/07 04:06:28;;;;;;;6.40;3.53;;;11.80;70.40;;;;;;5080787;28;20492;-75
2022/05/07 04:08:57;;;;;;;7.93;4.00;;;11.80;70.30;;;;;;5057709;28;20494;-75
2022/05/07 04:11:25;;;;;;;6.17;3.83;;;11.80;70.40;;;;;;5058708;28;20486;-75
2022/05/07 04:13:57;;;;;;;5.70;3.97;;;11.80;70.40;;;;;;5064265;28;20461;-75
2022/05/07 04:16:26;;;;;;;6.60;3.30;;;11.80;70.40;;;;;;5061205;28;20462;-75
2022/05/07 04:19:02;;;;;;;6.80;4.00;;;11.80;70.40;;;;;;5065212;28;20450;-74
2022/05/07 04:21:34;;;;;;;9.40;3.83;;;11.80;70.40;;;;;;5059075;28;20531;-75
2022/05/07 04:24:11;;;;;;;6.37;4.17;;;11.80;70.50;;;;;;5062320;28;20468;-75
2022/05/07 04:26:40;;;;;;;6.03;4.10;;;11.80;70.50;;;;;;5064667;28;20478;-75
2022/05/07 04:29:08;;;;;;;7.00;4.13;;;11.90;70.50;;;;;;5060183;28;20574;-75
2022/05/07 04:31:37;;;;;;;5.47;3.20;;;11.90;70.50;;;;;;5058999;28;20506;-75
2022/05/07 04:34:08;;;;;;;5.23;3.23;;;11.90;70.60;;;;;;5054813;28;20565;-75
2022/05/07 04:36:39;;;;;;;5.63;3.30;;;11.90;70.50;;;;;;5064498;28;20469;-75
2022/05/07 04:39:12;;;;;;;6.47;3.67;;;11.90;70.50;;;;;;5058860;28;20458;-75
2022/05/07 04:41:55;;;;;;;7.60;3.70;;;12.00;70.50;;;;;;5062634;28;20905;-74
2022/05/07 04:44:31;;;;;;;5.73;3.67;;;12.00;70.70;;;;;;5058809;28;21068;-75
2022/05/07 04:46:59;;;;;;;6.00;3.40;;;12.10;70.90;;;;;;5065635;28;21377;-75
2022/05/07 04:49:27;;;;;;;6.17;3.30;;;12.20;71.00;;;;;;5081446;28;20543;-74
2022/05/07 04:51:56;;;;;;;6.37;3.70;;;12.30;71.10;;;;;;5065932;28;20490;-74
2022/05/07 04:54:27;;;;;;;5.50;3.60;;;12.50;71.20;;;;;;5059148;28;20469;-75
2022/05/07 04:56:57;;;;;;;6.30;3.97;;;12.60;71.20;;;;;;5055324;28;20458;-75
2022/05/07 04:59:37;;;;;;;5.37;3.33;;;12.70;71.10;;;;;;5063671;28;20996;-75
2022/05/07 05:02:10;;;;;;;6.03;3.40;;;12.90;71.10;;;;;;5080433;28;21085;-75
2022/05/07 05:04:40;;;;;;;5.20;3.40;;;13.00;71.20;;;;;;5063519;28;20497;-75
2022/05/07 05:07:14;;;;;;;6.53;4.33;;;13.20;71.60;;;;;;5060573;28;20558;-75
2022/05/07 05:09:45;;;;;;;6.93;3.97;;;13.40;72.80;;;;;;5063786;28;20541;-75
2022/05/07 05:12:26;;;;;;;7.80;4.53;;;13.90;73.60;;;;;;5058236;28;20475;-75
2022/05/07 05:15:03;;;;;;;8.10;4.80;;;14.80;72.50;;;;;;5063934;28;20493;-75
2022/05/07 05:17:52;;;;;;;7.50;4.50;;;15.90;70.70;;;;;;5062800;28;20535;-74
2022/05/07 05:20:22;;;;;;;8.63;4.13;;;17.10;68.40;;;;;;5064281;28;20844;-75
2022/05/07 05:23:14;;;;;;;6.00;3.83;;;18.10;66.70;;;;;;5060294;28;20469;-75
2022/05/07 05:25:46;;;;;;;8.20;3.37;;;19.10;65.10;;;;;;5059001;28;20569;-75
2022/05/07 05:28:25;;;;;;;5.80;3.67;;;19.80;63.90;;;;;;5056115;28;20471;-75
2022/05/07 05:31:02;;;;;;;6.63;3.50;;;20.60;62.90;;;;;;5067251;28;20474;-75
2022/05/07 05:33:33;;;;;;;5.33;3.23;;;21.30;62.10;;;;;;5066409;28;20512;-75
2022/05/07 05:36:17;;;;;;;5.47;3.67;;;21.90;61.30;;;;;;5080152;28;20953;-73
2022/05/07 05:38:49;;;;;;;7.23;3.60;;;22.60;60.60;;;;;;5056579;28;20482;-75
2022/05/07 05:41:21;;;;;;;5.37;3.00;;;23.20;59.90;;;;;;5063214;28;20521;-75
2022/05/07 05:43:50;;;;;;;7.07;4.00;;;23.70;59.40;;;;;;5062454;28;21045;-76
2022/05/07 05:46:19;;;;;;;5.80;4.00;;;24.30;58.60;;;;;;5056580;28;20489;-76
2022/05/07 05:48:49;;;;;;;6.27;3.70;;;24.80;58.10;;;;;;5065804;28;20450;-76
2022/05/07 05:51:17;;;;;;;8.33;3.40;;;25.30;57.30;;;;;;5067364;28;20503;-75
2022/05/07 05:53:49;;;;;;;6.43;3.80;;;25.90;56.30;;;;;;5064934;28;20854;-73
2022/05/07 05:56:17;;;;;;;6.33;3.73;;;26.50;55.40;;;;;;5064572;28;20935;-74
2022/05/07 05:58:50;;;;;;;5.33;3.60;;;27.00;54.40;;;;;;5054604;28;20457;-74
2022/05/07 06:01:22;;;;;;;8.27;4.10;;;27.50;53.30;;;;;;5068210;28;20557;-74
2022/05/07 06:04:07;;;;;;;5.90;3.83;;;27.90;52.30;;;;;;5058568;28;20461;-74
2022/05/07 06:06:35;;;;;;;6.07;3.43;;;27.40;50.10;;;;;;5061568;28;20464;-74
2022/05/07 06:09:05;;;;;;;8.30;4.10;;;25.80;49.70;;;;;;5065488;28;20447;-76
2022/05/07 06:11:33;;;;;;;6.37;4.03;;;23.90;50.50;;;;;;5062241;28;20515;-74
2022/05/07 06:14:03;;;;;;;6.30;3.83;;;22.10;51.70;;;;;;5058860;28;21004;-76
2022/05/07 06:16:32;;;;;;;7.90;4.20;;;20.60;53.20;;;;;;5066456;28;20532;-73
2022/05/07 06:19:07;;;;;;;6.00;3.97;;;19.50;54.40;;;;;;5061712;28;20958;-76
2022/05/07 06:21:36;;;;;;;7.80;4.30;;;18.50;55.70;;;;;;5081240;28;20469;-76
2022/05/07 06:29:39;;;;;;;7.83;4.73;;;16.70;58.80;;;;;;5071831;28;20462;-75
2022/05/07 06:32:09;;;;;;;6.90;4.30;;;16.30;60.10;;;;;;5064562;28;20468;-75
2022/05/07 06:34:37;;;;;;;6.00;4.30;;;16.00;60.70;;;;;;5067704;28;20550;-75
2022/05/07 06:37:05;;;;;;;6.23;4.00;;;15.70;61.30;;;;;;5066960;28;20469;-75
2022/05/07 06:39:38;;;;;;;6.87;4.60;;;15.60;61.90;;;;;;5065843;28;20458;-75
2022/05/07 06:42:06;;;;;;;6.60;3.90;;;15.50;62.60;;;;;;5066785;28;20624;-75
2022/05/07 06:44:43;;;;;;;5.33;3.33;;;15.40;63.10;;;;;;5059199;28;21029;-75
2022/05/07 06:47:11;;;;;;;6.03;3.50;;;15.40;63.40;;;;;;5066653;28;20482;-74
2022/05/07 06:49:40;;;;;;;5.97;3.53;;;15.30;63.70;;;;;;5069404;28;20835;-75
2022/05/07 06:52:08;;;;;;;6.50;3.47;;;15.30;64.00;;;;;;5066191;28;20986;-74
2022/05/07 06:54:36;;;;;;;6.20;3.50;;;15.40;64.30;;;;;;5066638;28;20970;-74
2022/05/07 06:57:06;;;;;;;7.57;3.77;;;15.40;64.50;;;;;;5068036;28;20463;-75
2022/05/07 06:59:34;;;;;;;5.53;3.23;;;15.40;64.80;;;;;;5068395;28;20920;-74
2022/05/07 07:02:03;;;;;;;5.70;3.30;;;15.40;65.00;;;;;;5066967;28;20959;-74
2022/05/07 07:04:31;;;;;;;6.67;3.60;;;15.50;65.10;;;;;;5068065;28;20548;-74
2022/05/07 07:06:59;;;;;;;7.60;3.77;;;15.50;65.40;;;;;;5080358;28;20865;-76
2022/05/07 07:09:27;;;;;;;7.10;3.80;;;15.50;65.60;;;;;;5067070;28;20466;-76
2022/05/07 07:11:55;;;;;;;6.73;3.93;;;15.50;65.80;;;;;;5067977;28;20485;-74
2022/05/07 07:14:25;;;;;;;5.83;3.13;;;15.60;66.00;;;;;;5080264;28;20557;-75
2022/05/07 07:16:53;;;;;;;5.90;3.70;;;15.60;66.10;;;;;;5065305;28;20478;-75
2022/05/07 07:19:21;;;;;;;7.77;3.73;;;15.60;66.30;;;;;;5065800;28;20476;-75
2022/05/07 07:21:51;;;;;;;9.23;3.90;;;15.70;66.50;;;;;;5060692;28;20925;-74
2022/05/07 07:24:19;;;;;;;8.37;4.10;;;15.70;66.70;;;;;;5063817;28;21099;-75
2022/05/07 07:26:47;;;;;;;6.60;4.43;;;15.70;66.90;;;;;;5056491;28;20482;-74
2022/05/07 07:29:15;;;;;;;9.30;4.20;;;15.70;67.10;;;;;;5065353;28;21044;-75
2022/05/07 07:31:45;;;;;;;7.03;3.87;;;15.70;67.30;;;;;;5065720;28;20501;-75
2022/05/07 07:34:13;;;;;;;5.30;3.10;;;15.70;67.40;;;;;;5067301;28;20458;-75
2022/05/07 07:36:44;;;;;;;7.57;4.17;;;15.70;67.60;;;;;;5064817;28;20455;-75
2022/05/07 07:39:12;;;;;;;6.53;4.30;;;15.80;67.70;;;;;;5061507;28;20458;-75
2022/05/07 07:41:40;;;;;;;7.33;3.60;;;15.80;68.10;;;;;;5067368;28;20509;-75
2022/05/07 07:44:08;;;;;;;9.10;4.20;;;15.80;68.10;;;;;;5066903;28;20958;-75
2022/05/07 07:49:24;;;;;;;8.03;4.67;;;15.90;68.30;;;;;;5064948;28;20562;-75
2022/05/07 07:51:51;;;;;;;8.03;3.60;;;16.00;68.40;;;;;;5066841;28;20478;-75
2022/05/07 07:54:19;;;;;;;9.40;4.70;;;16.00;68.50;;;;;;5064819;28;20455;-76
2022/05/07 07:56:47;;;;;;;7.27;3.87;;;16.00;68.50;;;;;;5065506;28;20454;-75
2022/05/07 07:59:15;;;;;;;6.70;3.67;;;16.10;68.60;;;;;;5062210;28;20470;-76
2022/05/07 08:01:44;;;;;;;7.97;3.80;;;16.10;68.70;;;;;;5063786;28;21013;-74
2022/05/07 08:04:13;;;;;;;5.90;3.50;;;16.20;68.90;;;;;;5062265;28;20469;-74
2022/05/07 08:06:43;;;;;;;5.63;3.77;;;16.30;68.90;;;;;;5062863;28;20473;-75
2022/05/07 08:11:59;;;;;;;8.73;4.33;;;16.40;68.90;;;;;;5065038;28;20473;-75
2022/05/07 08:14:27;;;;;;;8.73;4.47;;;16.50;68.80;;;;;;5066266;28;21433;-75
2022/05/07 08:16:55;;;;;;;7.97;3.97;;;16.50;68.80;;;;;;5064351;28;20482;-74
2022/05/07 08:19:23;;;;;;;8.27;4.20;;;16.60;68.80;;;;;;5065087;28;20460;-74
2022/05/07 08:21:52;;;;;;;7.43;3.77;;;16.70;68.70;;;;;;5066342;28;20505;-74
2022/05/07 08:24:20;;;;;;;7.37;3.90;;;16.70;68.60;;;;;;5065053;28;20537;-75
2022/05/07 08:26:48;;;;;;;66.90;13.93;;;16.80;68.50;;;;;;5065429;28;20503;-75
2022/05/07 08:29:16;;;;;;;12.33;4.90;;;16.90;68.40;;;;;;5064796;28;20712;-75
2022/05/07 08:31:44;;;;;;;9.53;3.30;;;16.90;68.40;;;;;;5064952;28;20485;-75
2022/05/07 08:34:12;;;;;;;14.03;3.50;;;17.00;68.30;;;;;;5065927;28;20462;-75
2022/05/07 08:36:40;;;;;;;5.90;3.10;;;17.00;68.30;;;;;;5065602;28;20461;-74
2022/05/07 08:39:09;;;;;;;7.80;2.90;;;17.10;68.20;;;;;;5065605;28;21296;-73
2022/05/07 08:41:38;;;;;;;9.10;3.40;;;17.10;68.10;;;;;;5064378;28;20500;-74
2022/05/07 08:44:06;;;;;;;6.17;3.17;;;17.20;68.10;;;;;;5064593;28;20520;-78
2022/05/07 08:46:34;;;;;;;38.10;7.13;;;17.30;68.00;;;;;;5064156;28;20583;-75
2022/05/07 08:49:02;;;;;;;42.00;10.40;;;17.40;67.70;;;;;;5063394;28;20506;-74
2022/05/07 08:51:31;;;;;;;25.07;4.97;;;17.60;67.60;;;;;;5062989;28;21188;-74
2022/05/07 08:54:00;;;;;;;19.00;4.53;;;17.60;67.30;;;;;;5062759;28;20468;-72
2022/05/07 08:56:29;;;;;;;5.23;2.70;;;17.70;66.80;;;;;;5065789;28;20561;-75
2022/05/07 08:58:57;;;;;;;6.13;3.07;;;17.80;65.80;;;;;;5063000;28;20450;-74
2022/05/07 09:01:25;;;;;;;10.23;3.00;;;17.90;66.00;;;;;;5065137;28;20486;-74
2022/05/07 09:03:53;;;;;;;8.40;3.77;;;17.90;65.80;;;;;;5065941;28;20466;-72
2022/05/07 09:06:23;;;;;;;8.13;2.83;;;18.00;65.10;;;;;;5062137;28;20877;-73
2022/05/07 09:08:52;;;;;;;5.67;2.53;;;18.00;63.90;;;;;;5064598;28;20508;-73
2022/05/07 09:11:21;;;;;;;6.70;2.77;;;18.10;63.70;;;;;;5063395;28;20518;-74
2022/05/07 09:14:04;;;;;;;7.90;2.53;;;18.10;64.40;;;;;;5064682;28;20504;-74
2022/05/07 09:16:40;;;;;;;5.33;2.40;;;18.20;64.20;;;;;;5063243;28;20482;-75
2022/05/07 09:19:20;;;;;;;5.10;2.40;;;18.20;64.00;;;;;;5060926;28;20460;-75
2022/05/07 09:21:48;;;;;;;6.03;2.17;;;18.20;61.70;;;;;;5064075;28;20477;-75
2022/05/07 09:24:17;;;;;;;5.50;2.40;;;18.20;63.10;;;;;;5063287;28;20462;-75
2022/05/07 09:26:47;;;;;;;4.77;2.30;;;18.20;62.50;;;;;;5065620;28;21091;-75
2022/05/07 09:29:17;;;;;;;6.43;2.30;;;18.30;61.40;;;;;;5063673;28;20561;-75
2022/05/07 09:31:46;;;;;;;4.77;1.93;;;18.30;61.90;;;;;;5079410;28;20594;-75
2022/05/07 09:37:01;;;;;;;6.27;2.40;;;18.40;61.00;;;;;;5057813;28;20984;-74
2022/05/07 09:39:33;;;;;;;5.77;2.53;;;18.50;60.90;;;;;;5061727;28;20459;-74
2022/05/07 09:42:02;;;;;;;4.70;2.20;;;18.60;59.10;;;;;;5060748;28;20494;-75
2022/05/07 09:44:32;;;;;;;4.27;2.30;;;18.70;60.10;;;;;;5066154;28;20449;-75
2022/05/07 09:47:01;;;;;;;5.23;2.40;;;18.80;60.00;;;;;;5068151;28;20500;-75
2022/05/07 09:49:33;;;;;;;7.57;2.33;;;18.80;59.70;;;;;;5068230;28;21065;-75
2022/05/07 09:52:04;;;;;;;5.50;2.47;;;18.90;59.50;;;;;;5065853;28;20989;-76
2022/05/07 09:57:33;;;;;;;5.53;2.33;;;19.00;59.80;;;;;;5065512;28;20466;-73
2022/05/07 10:00:08;;;;;;;10.30;2.63;;;19.10;59.50;;;;;;5057780;28;20449;-73
2022/05/07 10:02:58;;;;;;;4.50;2.40;;;19.10;59.70;;;;;;5058208;28;20960;-75
2022/05/07 10:05:44;;;;;;;5.37;2.13;;;19.20;59.60;;;;;;5068819;28;20493;-73
2022/05/07 10:08:22;;;;;;;5.20;2.47;;;19.20;59.40;;;;;;5068199;28;20567;-73
2022/05/07 10:10:52;;;;;;;5.13;2.20;;;19.30;59.20;;;;;;5068435;28;20492;-74
2022/05/07 10:13:21;;;;;;;6.73;2.80;;;19.30;59.10;;;;;;5067929;28;20863;-73
2022/05/07 10:16:00;;;;;;;7.10;1.97;;;19.40;58.90;;;;;;5069173;28;20466;-73
2022/05/07 10:18:38;;;;;;;7.87;2.60;;;19.40;58.70;;;;;;5067176;28;20520;-73
2022/05/07 10:21:14;;;;;;;6.17;1.97;;;19.40;58.70;;;;;;5074362;28;21115;-73
2022/05/07 10:23:50;;;;;;;4.17;1.87;;;19.40;58.60;;;;;;5062318;28;20453;-73
2022/05/07 10:26:19;;;;;;;4.53;2.17;;;19.40;58.20;;;;;;5075519;28;20458;-75
2022/05/07 10:28:49;;;;;;;5.17;2.57;;;19.40;58.30;;;;;;5063042;28;20492;-75
2022/05/07 10:31:23;;;;;;;5.00;2.30;;;19.50;57.70;;;;;;5063439;28;20485;-75
2022/05/07 10:33:52;;;;;;;6.47;3.30;;;19.50;57.90;;;;;;5058329;28;20454;-75
2022/05/07 10:36:21;;;;;;;5.90;2.20;;;19.50;57.30;;;;;;5065186;28;20461;-73
2022/05/07 10:38:50;;;;;;;5.03;2.20;;;19.50;57.80;;;;;;5068471;28;21009;-75
2022/05/07 10:41:23;;;;;;;5.13;2.30;;;19.60;57.50;;;;;;5068458;28;20495;-75
2022/05/07 10:44:04;;;;;;;5.83;2.23;;;19.60;57.30;;;;;;5067790;28;20504;-75
2022/05/07 10:46:42;;;;;;;4.30;1.93;;;19.60;54.80;;;;;;5067830;28;20835;-74
2022/05/07 10:49:10;;;;;;;5.23;1.73;;;19.60;57.00;;;;;;5067941;28;20532;-75
2022/05/07 10:51:50;;;;;;;5.13;2.17;;;19.70;57.00;;;;;;5068807;28;20486;-74
2022/05/07 10:54:21;;;;;;;4.30;1.93;;;19.70;56.90;;;;;;5062926;28;20915;-75
2022/05/07 10:56:52;;;;;;;5.30;2.20;;;19.80;57.10;;;;;;5085643;28;20464;-74
2022/05/07 10:59:21;;;;;;;7.23;2.90;;;19.80;56.40;;;;;;5070481;28;20474;-74
2022/05/07 11:01:51;;;;;;;4.30;2.10;;;19.90;56.90;;;;;;5068061;28;20466;-75
2022/05/07 11:04:22;;;;;;;5.40;2.50;;;19.90;56.40;;;;;;5069167;28;20466;-75
2022/05/07 11:06:52;;;;;;;7.00;2.43;;;19.90;56.50;;;;;;5070877;28;20456;-74
2022/05/07 11:09:22;;;;;;;4.50;2.10;;;19.80;56.50;;;;;;5072295;28;20470;-73
2022/05/07 11:11:52;;;;;;;3.90;1.70;;;19.90;56.40;;;;;;5074346;28;20470;-74
2022/05/07 11:14:23;;;;;;;17.70;3.60;;;19.90;56.30;;;;;;5060943;28;21000;-74
2022/05/07 11:16:53;;;;;;;5.50;2.00;;;20.00;56.10;;;;;;5082266;28;20506;-74
2022/05/07 11:19:26;;;;;;;10.80;2.30;;;20.10;56.00;;;;;;5072280;28;21835;-74
2022/05/07 11:21:55;;;;;;;5.27;1.70;;;20.10;55.80;;;;;;5072295;28;20494;-73
2022/05/07 11:24:25;;;;;;;5.10;2.33;;;20.20;55.40;;;;;;5069760;28;21010;-73
2022/05/07 11:26:54;;;;;;;21.70;8.20;;;20.30;55.50;;;;;;5073763;28;20452;-74
2022/05/07 11:29:22;;;;;;;4.53;1.70;;;20.30;55.40;;;;;;5071094;28;20472;-74
2022/05/07 11:32:00;;;;;;;4.43;1.57;;;20.30;54.80;;;;;;5072545;28;20549;-74
2022/05/07 11:34:32;;;;;;;4.00;1.50;;;20.20;54.20;;;;;;5072607;28;20456;-74
2022/05/07 11:37:13;;;;;;;5.33;1.80;;;20.20;54.60;;;;;;5072379;28;20475;-74
2022/05/07 11:39:49;;;;;;;4.97;1.70;;;20.20;54.90;;;;;;5064870;28;20465;-74
2022/05/07 11:42:28;;;;;;;5.43;2.30;;;20.20;54.70;;;;;;5087784;28;20853;-74
2022/05/07 11:45:26;;;;;;;6.43;1.97;;;20.20;54.40;;;;;;5071897;28;20501;-74
2022/05/07 11:47:57;;;;;;;6.43;2.10;;;20.20;54.70;;;;;;5068646;28;20470;-75
2022/05/07 11:50:27;;;;;;;42.43;14.83;;;20.20;54.60;;;;;;5066825;28;20478;-75
2022/05/07 11:52:57;;;;;;;19.37;6.80;;;20.20;54.60;;;;;;5065533;28;20468;-75
2022/05/07 11:55:29;;;;;;;5.33;2.03;;;20.10;54.80;;;;;;5065769;28;20450;-75
2022/05/07 11:57:58;;;;;;;4.80;2.00;;;20.10;54.90;;;;;;5067101;28;20463;-74
2022/05/07 12:00:27;;;;;;;4.20;1.90;;;20.20;54.60;;;;;;5067399;28;20468;-75
2022/05/07 12:03:01;;;;;;;4.80;1.60;;;20.20;55.00;;;;;;5070932;28;20459;-73
2022/05/07 12:05:40;;;;;;;6.93;2.20;;;20.30;55.00;;;;;;5065950;28;20467;-73
2022/05/07 12:08:16;;;;;;;5.13;2.07;;;20.40;55.20;;;;;;5066495;28;20471;-75
2022/05/07 12:10:44;;;;;;;5.90;2.20;;;20.40;54.70;;;;;;5065853;28;20487;-73
2022/05/07 12:13:15;;;;;;;6.43;2.63;;;20.50;55.00;;;;;;5060429;28;20454;-75
2022/05/07 12:18:36;;;;;;;4.00;1.87;;;20.60;54.70;;;;;;5066858;28;20459;-74
2022/05/07 12:21:06;;;;;;;4.83;2.07;;;20.50;54.50;;;;;;5058356;28;20471;-75
2022/05/07 12:31:55;;;;;;;5.27;2.00;;;20.50;54.50;;;;;;5060059;28;20494;-75
2022/05/07 12:34:31;;;;;;;5.80;2.70;;;20.50;54.60;;;;;;5057083;28;20539;-74
2022/05/07 12:36:59;;;;;;;4.80;1.90;;;20.50;54.50;;;;;;5068549;28;20691;-74
2022/05/07 12:39:29;;;;;;;4.50;2.20;;;20.50;54.50;;;;;;5080912;28;20987;-75
2022/05/07 12:42:05;;;;;;;4.17;2.00;;;20.60;54.40;;;;;;5062854;28;20491;-75
2022/05/07 12:44:34;;;;;;;5.17;1.63;;;20.60;54.30;;;;;;5068641;28;20439;-74
2022/05/07 12:47:03;;;;;;;6.50;1.83;;;20.50;54.20;;;;;;5068557;28;20484;-75
2022/05/07 12:49:34;;;;;;;4.57;2.00;;;20.50;54.30;;;;;;5061041;28;20571;-75
2022/05/07 12:52:03;;;;;;;5.20;2.33;;;20.60;54.50;;;;;;5055658;28;20478;-75
2022/05/07 12:54:31;;;;;;;7.50;2.33;;;20.60;54.50;;;;;;5061093;28;20858;-74
2022/05/07 12:57:06;;;;;;;4.93;2.07;;;20.70;54.30;;;;;;5066905;28;20460;-75
2022/05/07 12:59:36;;;;;;;41.07;13.03;;;20.70;54.30;;;;;;5062746;28;20462;-74
2022/05/07 13:02:05;;;;;;;10.03;3.50;;;20.80;54.30;;;;;;5061648;28;20480;-75
2022/05/07 13:04:34;;;;;;;6.17;2.30;;;20.80;54.30;;;;;;5056694;28;20484;-74
2022/05/07 13:07:03;;;;;;;4.70;2.03;;;20.80;54.30;;;;;;5062246;28;20472;-75
2022/05/07 13:09:31;;;;;;;6.37;2.00;;;20.90;54.30;;;;;;5063456;28;20463;-73
2022/05/07 13:12:19;;;;;;;4.17;1.80;;;20.90;54.30;;;;;;5058794;28;21182;-74
2022/05/07 13:14:55;;;;;;;5.10;1.90;;;20.90;54.10;;;;;;5060006;28;20811;-75
2022/05/07 13:17:23;;;;;;;4.20;1.70;;;21.00;54.00;;;;;;5057978;28;20482;-74
2022/05/07 13:19:53;;;;;;;5.97;2.07;;;21.00;53.90;;;;;;5065215;28;20504;-74
2022/05/07 13:22:21;;;;;;;4.67;2.30;;;21.00;53.90;;;;;;5066693;28;20471;-74
2022/05/07 13:24:49;;;;;;;21.13;7.93;;;21.10;54.00;;;;;;5055151;28;20468;-74
2022/05/07 13:27:17;;;;;;;4.10;1.90;;;21.10;53.90;;;;;;5063607;28;20464;-74
2022/05/07 13:29:45;;;;;;;6.47;2.13;;;21.10;53.70;;;;;;5064881;28;20480;-74
2022/05/07 13:32:13;;;;;;;4.20;2.00;;;21.10;53.80;;;;;;5063872;28;20476;-74
2022/05/07 13:34:42;;;;;;;6.50;2.20;;;21.20;53.70;;;;;;5063834;28;20455;-75
2022/05/07 13:37:12;;;;;;;8.60;2.17;;;21.20;53.70;;;;;;5061936;28;20464;-74
2022/05/07 13:39:41;;;;;;;3.90;1.60;;;21.30;53.70;;;;;;5061429;28;20462;-75